createdAt,value
2022-08-04T00:02:18.949Z,13.55
2022-08-04T00:04:53.398Z,11.35
2022-08-04T00:07:48.389Z,9.52
2022-08-04T00:10:18.306Z,6.35
2022-08-04T00:12:55.814Z,7.10
2022-08-04T00:15:25.104Z,6.72
2022-08-04T00:18:03.440Z,8.20
2022-08-04T00:20:35.196Z,8.60
2022-08-04T00:23:02.807Z,5.90
2022-08-04T00:25:30.357Z,11.75
2022-08-04T00:27:57.592Z,12.43
2022-08-04T00:30:25.426Z,6.60
2022-08-04T00:32:52.896Z,5.80
2022-08-04T00:35:20.248Z,7.20
2022-08-04T00:37:47.703Z,12.25
2022-08-04T00:40:55.005Z,7.90
2022-08-04T00:43:31.616Z,8.23
2022-08-04T00:46:28.892Z,9.15
2022-08-04T00:49:07.146Z,8.10
2022-08-04T00:52:31.513Z,10.18
2022-08-04T00:55:17.365Z,11.70
2022-08-04T00:57:51.986Z,8.60
2022-08-04T01:00:20.279Z,8.80
2022-08-04T01:03:08.204Z,7.15
2022-08-04T01:05:38.461Z,12.63
2022-08-04T01:08:05.507Z,9.27
2022-08-04T01:10:49.360Z,4.85
2022-08-04T01:13:24.858Z,5.22
2022-08-04T01:16:05.420Z,12.05
2022-08-04T01:18:50.280Z,7.55
2022-08-04T01:21:40.762Z,8.65
2022-08-04T01:24:36.432Z,5.93
2022-08-04T01:27:12.102Z,6.53
2022-08-04T01:29:56.638Z,6.82
2022-08-04T01:32:27.885Z,9.38
2022-08-04T01:35:04.085Z,10.48
2022-08-04T01:37:36.398Z,9.52
2022-08-04T01:40:07.470Z,10.60
2022-08-04T01:42:36.902Z,10.30
2022-08-04T01:45:10.494Z,9.00
2022-08-04T01:47:40.379Z,10.20
2022-08-04T01:50:12.754Z,7.07
2022-08-04T01:52:41.903Z,10.35
2022-08-04T01:55:12.215Z,6.25
2022-08-04T01:57:44.350Z,5.25
2022-08-04T02:00:13.455Z,7.75
2022-08-04T02:02:40.476Z,7.07
2022-08-04T02:05:11.812Z,10.52
2022-08-04T02:08:03.818Z,12.90
2022-08-04T02:10:42.849Z,9.57
2022-08-04T02:13:40.185Z,6.15
2022-08-04T02:16:15.949Z,8.60
2022-08-04T02:19:02.247Z,8.75
2022-08-04T02:21:42.637Z,11.88
2022-08-04T02:24:16.172Z,10.63
2022-08-04T02:26:48.311Z,6.45
2022-08-04T02:29:20.969Z,6.63
2022-08-04T02:32:39.985Z,7.13
2022-08-04T02:35:23.022Z,7.35
2022-08-04T02:38:00.164Z,6.43
2022-08-04T02:40:31.758Z,6.10
2022-08-04T02:43:00.216Z,6.93
2022-08-04T02:45:28.999Z,6.35
2022-08-04T02:48:30.735Z,4.85
2022-08-04T02:50:46.548Z,6.55
2022-08-04T02:53:18.484Z,7.55
2022-08-04T02:55:51.019Z,6.68
2022-08-04T02:58:21.402Z,5.05
2022-08-04T03:00:52.104Z,4.95
2022-08-04T03:04:02.944Z,5.40
2022-08-04T03:06:39.118Z,3.13
2022-08-04T03:09:24.616Z,4.30
2022-08-04T03:12:13.016Z,5.47
2022-08-04T03:15:07.576Z,6.05
2022-08-04T03:17:37.281Z,7.05
2022-08-04T03:20:44.442Z,4.63
2022-08-04T03:23:38.399Z,10.15
2022-08-04T03:26:43.602Z,5.20
2022-08-04T03:29:37.061Z,9.63
2022-08-04T03:32:25.762Z,3.97
2022-08-04T03:35:11.163Z,3.60
2022-08-04T03:38:00.797Z,6.65
2022-08-04T03:40:45.806Z,5.50
2022-08-04T03:43:57.374Z,5.00
2022-08-04T03:47:13.447Z,6.78
2022-08-04T03:50:07.442Z,4.35
2022-08-04T03:53:24.419Z,6.97
2022-08-04T03:56:00.417Z,7.05
2022-08-04T03:58:57.411Z,3.97
2022-08-04T04:02:02.208Z,6.22
2022-08-04T04:04:57.456Z,5.80
2022-08-04T04:07:48.892Z,5.50
2022-08-04T04:11:12.687Z,8.30
2022-08-04T04:14:16.390Z,10.50
2022-08-04T04:17:05.277Z,8.77
2022-08-04T04:19:50.140Z,11.48
2022-08-04T04:22:52.234Z,12.27
2022-08-04T04:25:56.077Z,12.82
2022-08-04T04:28:50.705Z,12.07
2022-08-04T04:31:33.594Z,10.82
2022-08-04T04:34:06.508Z,11.57
2022-08-04T04:37:01.118Z,14.65
2022-08-04T04:39:58.096Z,10.85
2022-08-04T04:42:42.576Z,11.38
2022-08-04T04:45:23.361Z,12.55
2022-08-04T04:48:10.061Z,12.55
2022-08-04T04:51:15.376Z,9.70
2022-08-04T04:54:00.394Z,10.02
2022-08-04T04:56:37.109Z,11.27
2022-08-04T04:59:15.537Z,11.63
2022-08-04T05:01:54.338Z,10.13
2022-08-04T05:04:42.965Z,14.65
2022-08-04T05:07:33.556Z,11.88
2022-08-04T05:10:13.472Z,14.15
2022-08-04T05:14:34.478Z,13.40
2022-08-04T05:16:07.770Z,15.60
2022-08-04T05:18:38.973Z,10.45
2022-08-04T05:21:24.393Z,11.70
2022-08-04T05:23:56.674Z,13.38
2022-08-04T05:26:30.023Z,13.43
2022-08-04T05:29:02.657Z,16.90
2022-08-04T05:31:38.065Z,14.20
2022-08-04T05:34:09.543Z,16.90
2022-08-04T05:36:42.075Z,20.58
2022-08-04T05:39:31.057Z,22.33
2022-08-04T05:42:04.615Z,35.25
2022-08-04T05:44:34.453Z,42.00
2022-08-04T05:47:02.815Z,39.50
2022-08-04T05:49:29.946Z,32.63
2022-08-04T05:52:03.020Z,36.03
2022-08-04T05:54:35.013Z,30.85
2022-08-04T05:57:04.720Z,39.17
2022-08-04T05:59:32.477Z,45.90
2022-08-04T06:02:01.027Z,45.60
2022-08-04T06:04:38.665Z,48.95
2022-08-04T06:07:06.853Z,47.97
2022-08-04T06:09:34.674Z,46.13
2022-08-04T06:12:04.868Z,43.78
2022-08-04T06:14:37.229Z,47.70
2022-08-04T06:18:33.594Z,47.85
2022-08-04T06:20:18.025Z,47.70
2022-08-04T06:22:46.931Z,57.80
2022-08-04T06:25:19.094Z,59.22
2022-08-04T06:27:46.824Z,56.33
2022-08-04T06:30:15.684Z,58.22
2022-08-04T06:33:03.667Z,65.07
2022-08-04T06:35:37.660Z,72.38
2022-08-04T06:38:05.090Z,71.25
2022-08-04T06:40:34.230Z,67.72
2022-08-04T06:43:03.720Z,81.70
2022-08-04T06:45:34.549Z,79.80
2022-08-04T06:48:03.444Z,78.90
2022-08-04T06:51:28.023Z,75.85
2022-08-04T06:53:19.030Z,85.53
2022-08-04T06:55:48.655Z,79.90
2022-08-04T06:58:17.258Z,78.60
2022-08-04T07:00:47.007Z,75.35
2022-08-04T07:03:15.941Z,78.03
2022-08-04T07:05:43.432Z,74.03
2022-08-04T07:08:12.035Z,79.40
2022-08-04T07:10:40.442Z,73.25
2022-08-04T07:13:09.489Z,75.15
2022-08-04T07:15:39.011Z,71.82
2022-08-04T07:18:06.175Z,80.47
2022-08-04T07:20:36.529Z,74.88
2022-08-04T07:23:05.779Z,73.72
2022-08-04T07:26:00.731Z,80.15
2022-08-04T07:28:27.204Z,75.97
2022-08-04T07:30:56.734Z,76.80
2022-08-04T07:33:25.836Z,75.53
2022-08-04T07:36:09.323Z,78.50
2022-08-04T07:38:46.530Z,72.57
2022-08-04T07:41:38.312Z,76.28
2022-08-04T07:44:06.947Z,77.03
2022-08-04T07:46:34.471Z,65.25
2022-08-04T07:49:01.826Z,71.03
2022-08-04T07:51:30.783Z,63.53
2022-08-04T07:54:03.419Z,62.97
2022-08-04T07:56:31.108Z,66.05
2022-08-04T07:58:58.248Z,49.55
2022-08-04T08:01:25.681Z,58.63
2022-08-04T08:03:56.050Z,60.50
2022-08-04T08:06:33.048Z,52.00
2022-08-04T08:09:13.407Z,52.75
2022-08-04T08:12:35.300Z,51.33
2022-08-04T08:14:35.646Z,49.88
2022-08-04T08:17:03.919Z,44.80
2022-08-04T08:19:35.498Z,43.55
2022-08-04T08:22:03.565Z,45.80
2022-08-04T08:24:34.914Z,50.75
2022-08-04T08:27:04.594Z,55.08
2022-08-04T08:29:34.921Z,54.03
2022-08-04T08:32:08.268Z,50.45
2022-08-04T08:34:38.608Z,49.72
2022-08-04T08:37:31.871Z,47.35
2022-08-04T08:40:39.210Z,51.95
2022-08-04T08:44:04.545Z,49.50
2022-08-04T08:46:50.097Z,45.65
2022-08-04T08:50:01.666Z,41.15
2022-08-04T08:52:55.373Z,44.60
2022-08-04T08:55:17.921Z,45.97
2022-08-04T08:58:06.004Z,46.35
2022-08-04T09:00:38.705Z,46.97
2022-08-04T09:03:41.610Z,46.05
2022-08-04T09:06:36.208Z,45.00
2022-08-04T09:09:31.579Z,44.28
2022-08-04T09:12:28.701Z,48.22
2022-08-04T09:15:08.556Z,52.22
2022-08-04T09:17:55.494Z,48.42
2022-08-04T09:20:39.494Z,41.20
2022-08-04T09:23:08.792Z,44.08
2022-08-04T09:25:48.029Z,51.45
2022-08-04T09:28:51.712Z,44.15
2022-08-04T09:31:16.885Z,46.38
2022-08-04T09:34:10.367Z,40.67
2022-08-04T09:36:51.610Z,42.50
2022-08-04T09:39:43.071Z,39.17
2022-08-04T09:42:53.069Z,35.38
2022-08-04T09:45:32.666Z,34.85
2022-08-04T09:48:17.429Z,37.15
2022-08-04T09:50:50.433Z,35.35
2022-08-04T09:53:23.925Z,35.95
2022-08-04T09:56:03.884Z,39.58
2022-08-04T09:58:58.475Z,39.08
2022-08-04T10:01:28.257Z,38.17
2022-08-04T10:04:20.088Z,37.65
2022-08-04T10:07:24.280Z,35.95
2022-08-04T10:10:17.866Z,41.70
2022-08-04T10:13:38.566Z,40.45
2022-08-04T10:16:24.064Z,34.85
2022-08-04T10:19:09.880Z,42.50
2022-08-04T10:21:59.285Z,41.67
2022-08-04T10:24:50.753Z,38.15
2022-08-04T10:27:34.627Z,37.33
2022-08-04T10:30:12.217Z,33.25
2022-08-04T10:33:18.419Z,43.83
2022-08-04T10:35:50.618Z,31.55
2022-08-04T10:38:30.303Z,35.50
2022-08-04T10:41:09.436Z,31.10
2022-08-04T10:44:06.693Z,29.45
2022-08-04T10:46:41.692Z,31.23
2022-08-04T10:49:23.162Z,33.25
2022-08-04T10:52:11.269Z,30.65
2022-08-04T10:54:58.172Z,32.40
2022-08-04T10:57:44.169Z,26.55
2022-08-04T11:00:15.419Z,28.95
2022-08-04T11:03:11.023Z,29.80
2022-08-04T11:05:49.322Z,31.40
2022-08-04T11:08:23.180Z,25.60
2022-08-04T11:11:18.502Z,28.90
2022-08-04T11:14:05.007Z,30.80
2022-08-04T11:17:00.929Z,28.45
2022-08-04T11:19:45.344Z,28.70
2022-08-04T11:22:23.425Z,30.65
2022-08-04T11:25:12.111Z,28.27
2022-08-04T11:28:01.140Z,33.05
2022-08-04T11:30:35.895Z,30.83
2022-08-04T11:33:12.785Z,27.25
2022-08-04T11:35:46.354Z,27.95
2022-08-04T11:38:24.133Z,30.77
2022-08-04T11:41:05.728Z,24.90
2022-08-04T11:44:00.691Z,26.20
2022-08-04T11:46:39.598Z,24.73
2022-08-04T11:49:18.475Z,28.42
2022-08-04T11:51:46.540Z,30.65
2022-08-04T11:54:14.350Z,24.60
2022-08-04T11:56:41.434Z,23.65
2022-08-04T11:59:09.004Z,27.35
2022-08-04T12:02:19.135Z,22.35
2022-08-04T12:04:57.102Z,18.13
2022-08-04T12:07:59.304Z,20.20
2022-08-04T12:10:56.081Z,24.35
2022-08-04T12:13:40.844Z,19.10
2022-08-04T12:16:22.147Z,16.10
2022-08-04T12:19:06.821Z,12.95
2022-08-04T12:21:53.438Z,19.55
2022-08-04T12:24:27.760Z,19.95
2022-08-04T12:26:59.565Z,14.18
2022-08-04T12:29:31.433Z,15.07
2022-08-04T12:32:04.469Z,20.73
2022-08-04T12:34:40.817Z,15.52
2022-08-04T12:37:25.543Z,27.15
2022-08-04T12:40:29.408Z,17.92
2022-08-04T12:42:59.587Z,17.45
2022-08-04T12:45:29.667Z,16.58
2022-08-04T12:47:59.599Z,13.18
2022-08-04T12:50:28.067Z,14.43
2022-08-04T12:53:04.523Z,15.80
2022-08-04T12:55:37.210Z,13.05
2022-08-04T12:58:15.943Z,8.70
2022-08-04T13:00:48.187Z,9.93
2022-08-04T13:03:17.514Z,11.13
2022-08-04T13:05:45.668Z,12.20
2022-08-04T13:08:13.833Z,12.07
2022-08-04T13:10:46.054Z,13.30
2022-08-04T13:13:17.773Z,12.52
2022-08-04T13:15:56.930Z,13.85
2022-08-04T13:18:30.075Z,11.52
2022-08-04T13:21:20.107Z,10.50
2022-08-04T13:24:10.188Z,8.85
2022-08-04T13:26:55.586Z,9.57
2022-08-04T13:29:57.841Z,9.15
2022-08-04T13:32:24.579Z,11.60
2022-08-04T13:34:56.627Z,10.32
2022-08-04T13:37:30.713Z,8.82
2022-08-04T13:39:59.665Z,9.48
2022-08-04T13:42:27.659Z,10.48
2022-08-04T13:44:58.081Z,10.50
2022-08-04T13:47:41.263Z,8.88
2022-08-04T13:53:00.968Z,8.40
2022-08-04T13:55:35.899Z,19.42
2022-08-04T13:58:08.970Z,9.95
2022-08-04T14:01:05.932Z,4.78
2022-08-04T14:03:54.940Z,8.52
2022-08-04T14:06:49.758Z,10.70
2022-08-04T14:09:19.770Z,6.75
2022-08-04T14:12:08.808Z,10.27
2022-08-04T14:14:51.354Z,9.13
2022-08-04T14:17:23.723Z,6.65
2022-08-04T14:20:03.409Z,10.45
2022-08-04T14:22:31.335Z,9.18
2022-08-04T14:25:35.390Z,9.73
2022-08-04T14:28:02.951Z,9.25
2022-08-04T14:30:33.779Z,11.63
2022-08-04T14:34:02.425Z,14.82
2022-08-04T14:36:03.839Z,10.57
2022-08-04T14:38:57.320Z,10.35
2022-08-04T14:41:44.938Z,6.30
2022-08-04T14:44:12.951Z,8.02
2022-08-04T14:47:00.082Z,12.35
2022-08-04T14:49:26.958Z,5.30
2022-08-04T14:52:01.839Z,8.27
2022-08-04T14:54:33.915Z,8.40
2022-08-04T14:57:08.565Z,7.18
2022-08-04T15:00:00.895Z,8.60
2022-08-04T15:02:30.407Z,7.72
2022-08-04T15:04:57.851Z,7.93
2022-08-04T15:07:25.688Z,8.18
2022-08-04T15:09:52.977Z,10.73
2022-08-04T15:12:21.093Z,9.75
2022-08-04T15:14:48.412Z,9.48
2022-08-04T15:17:30.179Z,7.40
2022-08-04T15:19:58.548Z,10.80
2022-08-04T15:22:25.896Z,6.57
2022-08-04T15:24:54.976Z,4.63
2022-08-04T15:27:28.509Z,11.77
2022-08-04T15:30:02.003Z,8.20
2022-08-04T15:32:39.497Z,6.07
2022-08-04T15:35:17.333Z,7.80
2022-08-04T15:38:02.358Z,9.40
2022-08-04T15:40:50.908Z,7.43
2022-08-04T15:43:45.846Z,8.00
2022-08-04T15:46:41.468Z,13.35
2022-08-04T15:52:11.805Z,9.45
2022-08-04T16:00:54.845Z,5.78
2022-08-04T16:03:53.095Z,10.35
2022-08-04T16:06:20.790Z,9.98
2022-08-04T16:08:57.900Z,8.52
2022-08-04T16:11:31.470Z,7.68
2022-08-04T16:13:59.098Z,5.25
2022-08-04T16:16:33.068Z,8.43
2022-08-04T16:19:06.978Z,9.05
2022-08-04T16:21:35.630Z,7.55
2022-08-04T16:24:23.831Z,6.65
2022-08-04T16:26:56.873Z,9.05
2022-08-04T16:29:25.236Z,8.07
2022-08-04T16:32:13.384Z,9.00
2022-08-04T16:34:54.178Z,6.32
2022-08-04T16:37:27.365Z,5.15
2022-08-04T16:40:37.143Z,8.45
2022-08-04T16:43:18.234Z,8.32
2022-08-04T16:46:03.767Z,4.15
2022-08-04T16:48:33.106Z,8.80
2022-08-04T16:51:05.976Z,7.45
2022-08-04T16:53:52.895Z,8.77
2022-08-04T16:56:35.681Z,6.47
2022-08-04T16:59:11.025Z,5.00
2022-08-04T17:01:47.274Z,6.47
2022-08-04T17:04:14.418Z,7.75
2022-08-04T17:06:43.360Z,9.88
2022-08-04T17:09:16.125Z,7.32
2022-08-04T17:11:45.391Z,8.45
2022-08-04T17:14:13.424Z,5.78
2022-08-04T17:16:42.169Z,10.48
2022-08-04T17:19:24.017Z,5.70
2022-08-04T17:21:58.862Z,7.35
2022-08-04T17:24:30.006Z,9.48
2022-08-04T17:26:58.498Z,12.25
2022-08-04T17:32:19.986Z,5.97
2022-08-04T17:34:51.591Z,6.65
2022-08-04T17:37:38.444Z,7.78
2022-08-04T17:40:13.408Z,6.90
2022-08-04T17:42:41.828Z,9.98
2022-08-04T17:48:08.911Z,13.63
2022-08-04T17:50:36.762Z,6.50
2022-08-04T17:53:11.713Z,9.55
2022-08-04T17:55:46.891Z,12.23
2022-08-04T17:58:20.777Z,5.43
2022-08-04T18:01:10.741Z,9.52
2022-08-04T18:03:45.115Z,7.43
2022-08-04T18:06:20.405Z,9.63
2022-08-04T18:09:22.798Z,7.05
2022-08-04T18:11:53.500Z,6.68
2022-08-04T18:14:28.687Z,8.68
2022-08-04T18:16:56.000Z,5.97
2022-08-04T18:19:22.844Z,6.35
2022-08-04T18:21:59.491Z,6.32
2022-08-04T18:24:36.044Z,4.25
2022-08-04T18:27:17.924Z,5.53
2022-08-04T18:30:15.411Z,5.07
2022-08-04T18:32:33.745Z,7.22
2022-08-04T18:35:05.480Z,8.73
2022-08-04T18:38:06.716Z,4.72
2022-08-04T18:40:29.972Z,5.60
2022-08-04T18:43:03.522Z,9.35
2022-08-04T18:45:34.472Z,7.80
2022-08-04T18:48:14.649Z,5.90
2022-08-04T18:51:09.249Z,3.72
2022-08-04T18:56:31.593Z,6.53
2022-08-04T18:59:01.219Z,5.55
2022-08-04T19:01:30.420Z,9.45
2022-08-04T19:04:33.315Z,3.60
2022-08-04T19:07:24.474Z,2.88
2022-08-04T19:09:51.043Z,5.32
2022-08-04T19:12:27.338Z,4.88
2022-08-04T19:15:08.790Z,5.50
2022-08-04T19:17:53.265Z,7.85
2022-08-04T19:20:26.594Z,4.60
2022-08-04T19:24:11.029Z,5.20
2022-08-04T19:25:59.545Z,2.85
2022-08-04T19:28:33.960Z,3.00
2022-08-04T19:31:03.607Z,7.20
2022-08-04T19:33:55.604Z,4.75
2022-08-04T19:36:18.051Z,4.07
2022-08-04T19:38:45.414Z,6.88
2022-08-04T19:41:14.277Z,5.45
2022-08-04T19:43:43.922Z,3.60
2022-08-04T19:46:12.178Z,4.70
2022-08-04T19:48:40.126Z,5.45
2022-08-04T19:51:07.809Z,4.88
2022-08-04T19:53:37.560Z,4.65
2022-08-04T19:56:10.123Z,3.53
2022-08-04T19:58:38.775Z,6.40
2022-08-04T20:01:28.663Z,6.40
2022-08-04T20:04:09.674Z,7.13
2022-08-04T20:06:38.382Z,4.15
2022-08-04T20:09:26.383Z,4.20
2022-08-04T20:11:52.231Z,5.97
2022-08-04T20:14:31.066Z,7.63
2022-08-04T20:17:00.910Z,5.68
2022-08-04T20:19:28.086Z,5.35
2022-08-04T20:21:57.753Z,6.15
2022-08-04T20:24:38.833Z,4.97
2022-08-04T20:27:25.334Z,6.00
2022-08-04T20:29:57.485Z,8.80
2022-08-04T20:32:26.534Z,6.03
2022-08-04T20:34:55.996Z,5.95
2022-08-04T20:37:25.093Z,3.97
2022-08-04T20:40:01.026Z,4.45
2022-08-04T20:42:33.936Z,8.55
2022-08-04T20:45:02.519Z,4.95
2022-08-04T20:47:35.772Z,10.00
2022-08-04T20:50:09.170Z,7.57
2022-08-04T20:52:37.787Z,6.22
2022-08-04T20:55:06.878Z,7.38
2022-08-04T20:57:48.813Z,5.97
2022-08-04T21:00:29.871Z,5.00
2022-08-04T21:02:58.799Z,6.30
2022-08-04T21:05:26.421Z,5.38
2022-08-04T21:07:56.751Z,6.78
2022-08-04T21:13:05.956Z,5.65
2022-08-04T21:15:58.447Z,3.67
2022-08-04T21:18:29.130Z,4.47
2022-08-04T21:20:56.360Z,4.63
2022-08-04T21:23:23.285Z,5.93
2022-08-04T21:26:03.783Z,3.33
2022-08-04T21:28:31.699Z,4.45
2022-08-04T21:31:02.394Z,5.70
2022-08-04T21:33:50.776Z,6.45
2022-08-04T21:36:20.212Z,8.10
2022-08-04T21:38:51.787Z,5.80
2022-08-04T21:41:24.461Z,7.60
2022-08-04T21:43:52.584Z,3.65
2022-08-04T21:46:20.588Z,5.47
2022-08-04T21:48:49.263Z,7.45
2022-08-04T21:51:56.886Z,7.35
2022-08-04T21:54:08.243Z,5.57
2022-08-04T21:56:36.508Z,3.20
2022-08-04T21:59:11.462Z,3.65
2022-08-04T22:01:52.082Z,9.40
2022-08-04T22:04:21.730Z,8.27
2022-08-04T22:06:52.381Z,4.00
2022-08-04T22:09:21.585Z,8.35
2022-08-04T22:11:51.083Z,6.80
2022-08-04T22:14:27.549Z,8.50
2022-08-04T22:16:57.557Z,6.85
2022-08-04T22:19:40.265Z,3.92
2022-08-04T22:22:12.622Z,9.25
2022-08-04T22:24:51.876Z,5.07
2022-08-04T22:27:37.481Z,9.80
2022-08-04T22:30:10.531Z,5.22
2022-08-04T22:32:48.364Z,10.40
2022-08-04T22:35:36.501Z,9.70
2022-08-04T22:38:28.896Z,6.70
2022-08-04T22:40:58.570Z,4.60
2022-08-04T22:43:33.630Z,8.00
2022-08-04T22:46:08.030Z,6.30
2022-08-04T22:48:37.263Z,3.95
2022-08-04T22:51:06.082Z,9.57
2022-08-04T22:53:34.643Z,6.40
2022-08-04T22:56:09.923Z,5.43
2022-08-04T22:58:45.339Z,5.53
2022-08-04T23:01:18.392Z,4.22
2022-08-04T23:03:55.337Z,7.20
2022-08-04T23:06:24.985Z,7.95
2022-08-04T23:08:52.654Z,4.95
2022-08-04T23:11:19.826Z,6.00
2022-08-04T23:13:47.377Z,5.40
2022-08-04T23:16:17.133Z,6.25
2022-08-04T23:18:48.282Z,9.80
2022-08-04T23:21:16.629Z,9.52
2022-08-04T23:24:00.964Z,6.72
2022-08-04T23:26:31.317Z,9.82
2022-08-04T23:28:59.305Z,7.20
2022-08-04T23:31:38.903Z,4.82
2022-08-04T23:34:09.319Z,4.90
2022-08-04T23:36:39.412Z,9.57
2022-08-04T23:39:06.821Z,6.18
2022-08-04T23:41:55.255Z,7.15
2022-08-04T23:44:25.045Z,7.40
2022-08-04T23:47:03.592Z,10.77
2022-08-04T23:49:44.514Z,8.43
2022-08-04T23:52:23.362Z,8.57
2022-08-04T23:54:55.452Z,8.32
2022-08-04T23:57:22.526Z,7.70
2022-08-04T23:59:54.263Z,8.48
